sensor_id;sensor_type;location;lat;lon;timestamp;temperature;humidity
42841;DHT22;28491;46.898;7.660;2023-04-06T00:02:10;1.40;1.00
42841;DHT22;28491;46.898;7.660;2023-04-06T00:04:36;1.30;1.00
42841;DHT22;28491;46.898;7.660;2023-04-06T00:07:01;1.30;1.00
42841;DHT22;28491;46.898;7.660;2023-04-06T00:09:27;1.20;1.00
42841;DHT22;28491;46.898;7.660;2023-04-06T00:11:52;1.10;1.00
42841;DHT22;28491;46.898;7.660;2023-04-06T00:14:18;1.20;1.00
42841;DHT22;28491;46.898;7.660;2023-04-06T00:16:43;1.20;1.00
42841;DHT22;28491;46.898;7.660;2023-04-06T00:19:09;1.20;1.00
42841;DHT22;28491;46.898;7.660;2023-04-06T00:21:34;1.10;1.00
42841;DHT22;28491;46.898;7.660;2023-04-06T00:24:00;0.90;1.00
42841;DHT22;28491;46.898;7.660;2023-04-06T00:26:25;0.90;1.00
42841;DHT22;28491;46.898;7.660;2023-04-06T00:28:51;1.00;1.00
42841;DHT22;28491;46.898;7.660;2023-04-06T00:31:17;0.90;1.00
42841;DHT22;28491;46.898;7.660;2023-04-06T00:33:43;0.90;1.00
42841;DHT22;28491;46.898;7.660;2023-04-06T00:36:08;1.00;1.00
42841;DHT22;28491;46.898;7.660;2023-04-06T00:38:34;1.00;1.00
42841;DHT22;28491;46.898;7.660;2023-04-06T00:40:59;0.90;1.00
42841;DHT22;28491;46.898;7.660;2023-04-06T00:43:25;0.90;1.00
42841;DHT22;28491;46.898;7.660;2023-04-06T00:45:51;0.90;1.00
42841;DHT22;28491;46.898;7.660;2023-04-06T00:48:16;0.80;1.00
42841;DHT22;28491;46.898;7.660;2023-04-06T00:50:42;0.80;1.00
42841;DHT22;28491;46.898;7.660;2023-04-06T00:53:07;0.80;1.00
42841;DHT22;28491;46.898;7.660;2023-04-06T00:55:32;0.80;1.00
42841;DHT22;28491;46.898;7.660;2023-04-06T00:57:59;0.80;1.00
42841;DHT22;28491;46.898;7.660;2023-04-06T01:00:29;0.80;1.00
42841;DHT22;28491;46.898;7.660;2023-04-06T01:02:54;0.80;1.00
42841;DHT22;28491;46.898;7.660;2023-04-06T01:05:20;0.70;1.00
42841;DHT22;28491;46.898;7.660;2023-04-06T01:07:46;0.80;1.00
42841;DHT22;28491;46.898;7.660;2023-04-06T01:10:11;0.80;1.00
42841;DHT22;28491;46.898;7.660;2023-04-06T01:12:47;0.90;1.00
42841;DHT22;28491;46.898;7.660;2023-04-06T01:15:12;0.90;1.00
42841;DHT22;28491;46.898;7.660;2023-04-06T01:17:38;0.80;1.00
42841;DHT22;28491;46.898;7.660;2023-04-06T01:20:03;0.90;1.00
42841;DHT22;28491;46.898;7.660;2023-04-06T01:22:29;0.80;1.00
42841;DHT22;28491;46.898;7.660;2023-04-06T01:24:54;0.80;1.00
42841;DHT22;28491;46.898;7.660;2023-04-06T01:27:20;0.70;1.00
42841;DHT22;28491;46.898;7.660;2023-04-06T01:29:46;0.80;1.00
42841;DHT22;28491;46.898;7.660;2023-04-06T01:32:11;0.70;1.00
42841;DHT22;28491;46.898;7.660;2023-04-06T01:34:37;0.60;1.00
42841;DHT22;28491;46.898;7.660;2023-04-06T01:37:02;0.60;1.00
42841;DHT22;28491;46.898;7.660;2023-04-06T01:39:28;0.50;1.00
42841;DHT22;28491;46.898;7.660;2023-04-06T01:41:54;0.40;1.00
42841;DHT22;28491;46.898;7.660;2023-04-06T01:44:19;0.40;1.00
42841;DHT22;28491;46.898;7.660;2023-04-06T01:46:45;0.40;1.00
42841;DHT22;28491;46.898;7.660;2023-04-06T01:49:11;0.40;1.00
42841;DHT22;28491;46.898;7.660;2023-04-06T01:51:36;0.20;1.00
42841;DHT22;28491;46.898;7.660;2023-04-06T01:54:02;0.40;1.00
42841;DHT22;28491;46.898;7.660;2023-04-06T01:56:27;0.40;1.00
42841;DHT22;28491;46.898;7.660;2023-04-06T01:58:53;0.40;1.00
42841;DHT22;28491;46.898;7.660;2023-04-06T02:01:18;0.40;1.00
42841;DHT22;28491;46.898;7.660;2023-04-06T02:03:44;0.30;1.00
42841;DHT22;28491;46.898;7.660;2023-04-06T02:06:09;0.30;1.00
42841;DHT22;28491;46.898;7.660;2023-04-06T02:08:35;0.40;1.00
42841;DHT22;28491;46.898;7.660;2023-04-06T02:11:00;0.30;1.00
42841;DHT22;28491;46.898;7.660;2023-04-06T02:13:26;0.20;1.00
42841;DHT22;28491;46.898;7.660;2023-04-06T02:15:51;0.30;1.00
42841;DHT22;28491;46.898;7.660;2023-04-06T02:18:17;0.40;1.00
42841;DHT22;28491;46.898;7.660;2023-04-06T02:20:43;0.30;1.00
42841;DHT22;28491;46.898;7.660;2023-04-06T02:23:09;0.40;1.00
42841;DHT22;28491;46.898;7.660;2023-04-06T02:25:35;0.20;1.00
42841;DHT22;28491;46.898;7.660;2023-04-06T02:28:00;0.10;1.00
42841;DHT22;28491;46.898;7.660;2023-04-06T02:30:26;0.10;1.00
42841;DHT22;28491;46.898;7.660;2023-04-06T02:32:51;0.00;1.00
42841;DHT22;28491;46.898;7.660;2023-04-06T02:35:17;0.00;1.00
42841;DHT22;28491;46.898;7.660;2023-04-06T02:37:43;0.00;1.00
42841;DHT22;28491;46.898;7.660;2023-04-06T02:40:08;0.00;1.00
42841;DHT22;28491;46.898;7.660;2023-04-06T02:42:34;0.10;1.00
42841;DHT22;28491;46.898;7.660;2023-04-06T02:45:00;0.10;1.00
42841;DHT22;28491;46.898;7.660;2023-04-06T02:47:25;0.10;1.00
42841;DHT22;28491;46.898;7.660;2023-04-06T02:49:51;0.00;1.00
42841;DHT22;28491;46.898;7.660;2023-04-06T02:52:16;-0.10;1.00
42841;DHT22;28491;46.898;7.660;2023-04-06T02:54:43;-0.10;1.00
42841;DHT22;28491;46.898;7.660;2023-04-06T02:57:08;-0.10;1.00
42841;DHT22;28491;46.898;7.660;2023-04-06T02:59:34;0.00;1.00
42841;DHT22;28491;46.898;7.660;2023-04-06T03:01:59;0.00;1.00
42841;DHT22;28491;46.898;7.660;2023-04-06T03:04:25;0.00;1.00
42841;DHT22;28491;46.898;7.660;2023-04-06T03:06:51;-0.10;1.00
42841;DHT22;28491;46.898;7.660;2023-04-06T03:09:16;-0.10;1.00
42841;DHT22;28491;46.898;7.660;2023-04-06T03:11:42;0.00;1.00
42841;DHT22;28491;46.898;7.660;2023-04-06T03:14:07;-0.10;1.00
42841;DHT22;28491;46.898;7.660;2023-04-06T03:16:32;-0.10;1.00
42841;DHT22;28491;46.898;7.660;2023-04-06T03:18:58;-0.30;1.00
42841;DHT22;28491;46.898;7.660;2023-04-06T03:21:23;-0.30;1.00
42841;DHT22;28491;46.898;7.660;2023-04-06T03:23:49;-0.30;1.00
42841;DHT22;28491;46.898;7.660;2023-04-06T03:26:16;-0.30;1.00
42841;DHT22;28491;46.898;7.660;2023-04-06T03:28:41;-0.20;1.00
42841;DHT22;28491;46.898;7.660;2023-04-06T03:31:07;-0.30;1.00
42841;DHT22;28491;46.898;7.660;2023-04-06T03:33:32;-0.30;1.00
42841;DHT22;28491;46.898;7.660;2023-04-06T03:35:58;-0.50;1.00
42841;DHT22;28491;46.898;7.660;2023-04-06T03:38:23;-0.50;1.00
42841;DHT22;28491;46.898;7.660;2023-04-06T03:40:49;-0.60;1.00
42841;DHT22;28491;46.898;7.660;2023-04-06T03:43:14;-0.50;1.00
42841;DHT22;28491;46.898;7.660;2023-04-06T03:45:40;-0.40;1.00
42841;DHT22;28491;46.898;7.660;2023-04-06T03:48:06;-0.40;1.00
42841;DHT22;28491;46.898;7.660;2023-04-06T03:50:31;-0.40;1.00
42841;DHT22;28491;46.898;7.660;2023-04-06T03:52:56;-0.30;1.00
42841;DHT22;28491;46.898;7.660;2023-04-06T03:55:22;-0.40;1.00
42841;DHT22;28491;46.898;7.660;2023-04-06T03:57:48;-0.40;1.00
42841;DHT22;28491;46.898;7.660;2023-04-06T04:00:13;-0.40;1.00
42841;DHT22;28491;46.898;7.660;2023-04-06T04:02:39;-0.30;1.00
42841;DHT22;28491;46.898;7.660;2023-04-06T04:05:04;-0.40;1.00
42841;DHT22;28491;46.898;7.660;2023-04-06T04:07:30;-0.50;1.00
42841;DHT22;28491;46.898;7.660;2023-04-06T04:09:55;-0.50;1.00
42841;DHT22;28491;46.898;7.660;2023-04-06T04:12:21;-0.40;1.00
42841;DHT22;28491;46.898;7.660;2023-04-06T04:14:46;-0.50;1.00
42841;DHT22;28491;46.898;7.660;2023-04-06T04:17:12;-0.50;1.00
42841;DHT22;28491;46.898;7.660;2023-04-06T04:19:37;-0.50;1.00
42841;DHT22;28491;46.898;7.660;2023-04-06T04:22:03;-0.60;1.00
42841;DHT22;28491;46.898;7.660;2023-04-06T04:24:30;-0.60;1.00
42841;DHT22;28491;46.898;7.660;2023-04-06T04:26:55;-0.60;1.00
42841;DHT22;28491;46.898;7.660;2023-04-06T04:29:21;-0.50;1.00
42841;DHT22;28491;46.898;7.660;2023-04-06T04:31:48;-0.70;1.00
42841;DHT22;28491;46.898;7.660;2023-04-06T04:34:14;-0.70;1.00
42841;DHT22;28491;46.898;7.660;2023-04-06T04:36:40;-0.70;1.00
42841;DHT22;28491;46.898;7.660;2023-04-06T04:39:07;-0.80;1.00
42841;DHT22;28491;46.898;7.660;2023-04-06T04:41:33;-0.80;1.00
42841;DHT22;28491;46.898;7.660;2023-04-06T04:43:58;-0.70;1.00
42841;DHT22;28491;46.898;7.660;2023-04-06T04:46:24;-0.70;1.00
42841;DHT22;28491;46.898;7.660;2023-04-06T04:48:49;-0.70;1.00
42841;DHT22;28491;46.898;7.660;2023-04-06T04:51:15;-0.70;1.00
42841;DHT22;28491;46.898;7.660;2023-04-06T04:53:40;-0.70;1.00
42841;DHT22;28491;46.898;7.660;2023-04-06T04:56:06;-0.90;1.00
42841;DHT22;28491;46.898;7.660;2023-04-06T04:58:31;-0.90;1.00
42841;DHT22;28491;46.898;7.660;2023-04-06T05:00:57;-0.90;1.00
42841;DHT22;28491;46.898;7.660;2023-04-06T05:03:23;-0.90;1.00
42841;DHT22;28491;46.898;7.660;2023-04-06T05:05:48;-0.80;1.00
42841;DHT22;28491;46.898;7.660;2023-04-06T05:08:14;-1.10;1.00
42841;DHT22;28491;46.898;7.660;2023-04-06T05:10:40;-1.00;1.00
42841;DHT22;28491;46.898;7.660;2023-04-06T05:13:05;-1.10;1.00
42841;DHT22;28491;46.898;7.660;2023-04-06T05:15:31;-1.20;1.00
42841;DHT22;28491;46.898;7.660;2023-04-06T05:17:56;-1.20;1.00
42841;DHT22;28491;46.898;7.660;2023-04-06T05:20:22;-1.30;1.00
42841;DHT22;28491;46.898;7.660;2023-04-06T05:22:47;-1.40;1.00
42841;DHT22;28491;46.898;7.660;2023-04-06T05:25:13;-1.30;1.00
42841;DHT22;28491;46.898;7.660;2023-04-06T05:27:39;-1.20;1.00
42841;DHT22;28491;46.898;7.660;2023-04-06T05:30:06;-1.00;1.00
42841;DHT22;28491;46.898;7.660;2023-04-06T05:32:31;-0.90;1.00
42841;DHT22;28491;46.898;7.660;2023-04-06T05:34:57;-0.80;1.00
42841;DHT22;28491;46.898;7.660;2023-04-06T05:37:22;-0.70;1.00
42841;DHT22;28491;46.898;7.660;2023-04-06T05:39:48;-0.80;1.00
42841;DHT22;28491;46.898;7.660;2023-04-06T05:42:13;-0.80;1.00
42841;DHT22;28491;46.898;7.660;2023-04-06T05:44:39;-0.60;1.00
42841;DHT22;28491;46.898;7.660;2023-04-06T05:47:04;-0.40;1.00
42841;DHT22;28491;46.898;7.660;2023-04-06T05:49:30;-0.30;1.00
42841;DHT22;28491;46.898;7.660;2023-04-06T05:51:55;-0.10;1.00
42841;DHT22;28491;46.898;7.660;2023-04-06T05:54:21;0.00;1.00
42841;DHT22;28491;46.898;7.660;2023-04-06T05:56:46;0.10;1.00
42841;DHT22;28491;46.898;7.660;2023-04-06T05:59:12;0.20;1.00
42841;DHT22;28491;46.898;7.660;2023-04-06T06:01:37;0.20;1.00
42841;DHT22;28491;46.898;7.660;2023-04-06T06:04:02;0.80;1.00
42841;DHT22;28491;46.898;7.660;2023-04-06T06:06:28;2.30;1.00
42841;DHT22;28491;46.898;7.660;2023-04-06T06:08:55;3.50;1.00
42841;DHT22;28491;46.898;7.660;2023-04-06T06:11:23;5.00;1.00
42841;DHT22;28491;46.898;7.660;2023-04-06T06:13:48;5.70;1.00
42841;DHT22;28491;46.898;7.660;2023-04-06T06:16:14;6.20;1.00
42841;DHT22;28491;46.898;7.660;2023-04-06T06:18:40;6.40;1.00
42841;DHT22;28491;46.898;7.660;2023-04-06T06:21:05;6.80;1.00
42841;DHT22;28491;46.898;7.660;2023-04-06T06:23:31;6.90;1.00
42841;DHT22;28491;46.898;7.660;2023-04-06T06:25:56;7.50;1.00
42841;DHT22;28491;46.898;7.660;2023-04-06T06:28:23;7.30;1.00
42841;DHT22;28491;46.898;7.660;2023-04-06T06:30:50;7.50;1.00
42841;DHT22;28491;46.898;7.660;2023-04-06T06:33:16;8.00;1.00
42841;DHT22;28491;46.898;7.660;2023-04-06T06:35:42;7.60;1.00
42841;DHT22;28491;46.898;7.660;2023-04-06T06:38:07;8.80;1.00
42841;DHT22;28491;46.898;7.660;2023-04-06T06:40:33;9.10;1.00
42841;DHT22;28491;46.898;7.660;2023-04-06T06:42:58;8.70;1.00
42841;DHT22;28491;46.898;7.660;2023-04-06T06:45:24;9.00;1.00
42841;DHT22;28491;46.898;7.660;2023-04-06T06:47:50;9.00;1.00
42841;DHT22;28491;46.898;7.660;2023-04-06T06:50:16;9.80;1.00
42841;DHT22;28491;46.898;7.660;2023-04-06T06:52:41;10.00;1.00
42841;DHT22;28491;46.898;7.660;2023-04-06T06:55:07;10.10;1.00
42841;DHT22;28491;46.898;7.660;2023-04-06T06:57:33;9.60;1.00
42841;DHT22;28491;46.898;7.660;2023-04-06T06:59:59;9.50;1.00
42841;DHT22;28491;46.898;7.660;2023-04-06T07:02:25;10.10;1.00
42841;DHT22;28491;46.898;7.660;2023-04-06T07:04:50;10.00;1.00
42841;DHT22;28491;46.898;7.660;2023-04-06T07:07:16;9.70;1.00
42841;DHT22;28491;46.898;7.660;2023-04-06T07:09:41;10.00;1.00
42841;DHT22;28491;46.898;7.660;2023-04-06T07:12:07;10.00;1.00
42841;DHT22;28491;46.898;7.660;2023-04-06T07:14:32;10.40;1.00
42841;DHT22;28491;46.898;7.660;2023-04-06T07:16:58;9.60;1.00
42841;DHT22;28491;46.898;7.660;2023-04-06T07:19:23;10.10;1.00
42841;DHT22;28491;46.898;7.660;2023-04-06T07:21:49;10.70;1.00
42841;DHT22;28491;46.898;7.660;2023-04-06T07:24:15;10.60;1.00
42841;DHT22;28491;46.898;7.660;2023-04-06T07:26:40;11.30;1.00
42841;DHT22;28491;46.898;7.660;2023-04-06T07:29:06;12.20;1.00
42841;DHT22;28491;46.898;7.660;2023-04-06T07:31:31;12.20;1.00
42841;DHT22;28491;46.898;7.660;2023-04-06T07:33:57;11.50;1.00
42841;DHT22;28491;46.898;7.660;2023-04-06T07:36:22;11.90;1.00
42841;DHT22;28491;46.898;7.660;2023-04-06T07:38:47;12.70;1.00
42841;DHT22;28491;46.898;7.660;2023-04-06T07:41:14;12.40;1.00
42841;DHT22;28491;46.898;7.660;2023-04-06T07:43:39;13.00;1.00
42841;DHT22;28491;46.898;7.660;2023-04-06T07:46:05;13.30;1.00
42841;DHT22;28491;46.898;7.660;2023-04-06T07:48:31;13.90;1.00
42841;DHT22;28491;46.898;7.660;2023-04-06T07:51:03;13.90;1.00
42841;DHT22;28491;46.898;7.660;2023-04-06T07:53:29;14.00;1.00
42841;DHT22;28491;46.898;7.660;2023-04-06T07:55:55;14.20;1.00
42841;DHT22;28491;46.898;7.660;2023-04-06T07:58:21;14.20;1.00
42841;DHT22;28491;46.898;7.660;2023-04-06T08:00:46;14.10;1.00
42841;DHT22;28491;46.898;7.660;2023-04-06T08:03:12;14.90;1.00
42841;DHT22;28491;46.898;7.660;2023-04-06T08:05:37;15.20;1.00
42841;DHT22;28491;46.898;7.660;2023-04-06T08:08:03;15.30;1.00
42841;DHT22;28491;46.898;7.660;2023-04-06T08:10:28;15.00;1.00
42841;DHT22;28491;46.898;7.660;2023-04-06T08:12:54;15.00;1.00
42841;DHT22;28491;46.898;7.660;2023-04-06T08:15:19;15.30;1.00
42841;DHT22;28491;46.898;7.660;2023-04-06T08:17:45;15.10;1.00
42841;DHT22;28491;46.898;7.660;2023-04-06T08:20:10;15.00;1.00
42841;DHT22;28491;46.898;7.660;2023-04-06T08:22:36;15.20;1.00
42841;DHT22;28491;46.898;7.660;2023-04-06T08:25:01;15.80;1.00
42841;DHT22;28491;46.898;7.660;2023-04-06T08:27:27;16.40;1.00
42841;DHT22;28491;46.898;7.660;2023-04-06T08:29:52;16.60;1.00
42841;DHT22;28491;46.898;7.660;2023-04-06T08:32:18;16.70;1.00
42841;DHT22;28491;46.898;7.660;2023-04-06T08:34:43;16.40;1.00
42841;DHT22;28491;46.898;7.660;2023-04-06T08:37:09;16.40;1.00
42841;DHT22;28491;46.898;7.660;2023-04-06T08:39:34;16.00;1.00
42841;DHT22;28491;46.898;7.660;2023-04-06T08:42:00;16.40;1.00
42841;DHT22;28491;46.898;7.660;2023-04-06T08:44:28;16.10;1.00
42841;DHT22;28491;46.898;7.660;2023-04-06T08:46:54;16.80;1.00
42841;DHT22;28491;46.898;7.660;2023-04-06T08:49:20;16.60;1.00
42841;DHT22;28491;46.898;7.660;2023-04-06T08:51:45;16.20;1.00
42841;DHT22;28491;46.898;7.660;2023-04-06T08:54:12;16.20;1.00
42841;DHT22;28491;46.898;7.660;2023-04-06T08:56:38;16.10;1.00
42841;DHT22;28491;46.898;7.660;2023-04-06T08:59:03;16.10;1.00
42841;DHT22;28491;46.898;7.660;2023-04-06T09:01:30;15.80;1.00
42841;DHT22;28491;46.898;7.660;2023-04-06T09:03:59;16.00;1.00
42841;DHT22;28491;46.898;7.660;2023-04-06T09:06:30;16.20;1.00
42841;DHT22;28491;46.898;7.660;2023-04-06T09:08:56;16.40;1.00
42841;DHT22;28491;46.898;7.660;2023-04-06T09:11:22;16.10;1.00
42841;DHT22;28491;46.898;7.660;2023-04-06T09:13:48;16.60;1.00
42841;DHT22;28491;46.898;7.660;2023-04-06T09:16:14;17.10;1.00
42841;DHT22;28491;46.898;7.660;2023-04-06T09:18:39;17.90;1.00
42841;DHT22;28491;46.898;7.660;2023-04-06T09:21:05;17.80;1.00
42841;DHT22;28491;46.898;7.660;2023-04-06T09:23:31;17.70;1.00
42841;DHT22;28491;46.898;7.660;2023-04-06T09:28:50;17.40;1.00
42841;DHT22;28491;46.898;7.660;2023-04-06T09:31:21;17.90;1.00
42841;DHT22;28491;46.898;7.660;2023-04-06T09:33:46;17.60;1.00
42841;DHT22;28491;46.898;7.660;2023-04-06T09:36:12;17.00;1.00
42841;DHT22;28491;46.898;7.660;2023-04-06T09:38:50;17.10;1.00
42841;DHT22;28491;46.898;7.660;2023-04-06T09:41:20;17.50;1.00
42841;DHT22;28491;46.898;7.660;2023-04-06T09:43:46;17.20;1.00
42841;DHT22;28491;46.898;7.660;2023-04-06T09:46:11;17.10;1.00
42841;DHT22;28491;46.898;7.660;2023-04-06T09:48:37;16.40;1.00
42841;DHT22;28491;46.898;7.660;2023-04-06T09:51:03;16.30;1.00
42841;DHT22;28491;46.898;7.660;2023-04-06T09:53:29;15.90;1.00
42841;DHT22;28491;46.898;7.660;2023-04-06T09:55:57;16.50;1.00
42841;DHT22;28491;46.898;7.660;2023-04-06T09:58:23;16.10;1.00
42841;DHT22;28491;46.898;7.660;2023-04-06T10:01:00;16.70;1.00
42841;DHT22;28491;46.898;7.660;2023-04-06T10:03:31;15.40;1.00
42841;DHT22;28491;46.898;7.660;2023-04-06T10:06:05;16.20;1.00
42841;DHT22;28491;46.898;7.660;2023-04-06T10:08:35;16.30;1.00
42841;DHT22;28491;46.898;7.660;2023-04-06T10:11:01;16.10;1.00
42841;DHT22;28491;46.898;7.660;2023-04-06T10:13:27;16.60;1.00
42841;DHT22;28491;46.898;7.660;2023-04-06T10:15:52;17.00;1.00
42841;DHT22;28491;46.898;7.660;2023-04-06T10:18:19;17.30;1.00
42841;DHT22;28491;46.898;7.660;2023-04-06T10:25:55;17.90;1.00
42841;DHT22;28491;46.898;7.660;2023-04-06T10:28:20;17.80;1.00
42841;DHT22;28491;46.898;7.660;2023-04-06T10:30:46;17.60;1.00
42841;DHT22;28491;46.898;7.660;2023-04-06T10:33:12;17.20;1.00
42841;DHT22;28491;46.898;7.660;2023-04-06T10:35:38;17.30;1.00
42841;DHT22;28491;46.898;7.660;2023-04-06T10:38:04;17.30;1.00
42841;DHT22;28491;46.898;7.660;2023-04-06T10:40:30;17.30;1.00
42841;DHT22;28491;46.898;7.660;2023-04-06T10:43:06;16.60;1.00
42841;DHT22;28491;46.898;7.660;2023-04-06T10:45:32;16.10;1.00
42841;DHT22;28491;46.898;7.660;2023-04-06T10:47:57;16.20;1.00
42841;DHT22;28491;46.898;7.660;2023-04-06T10:50:23;16.20;1.00
42841;DHT22;28491;46.898;7.660;2023-04-06T10:52:58;16.00;1.00
42841;DHT22;28491;46.898;7.660;2023-04-06T10:55:24;16.20;1.00
42841;DHT22;28491;46.898;7.660;2023-04-06T10:57:51;16.10;1.00
42841;DHT22;28491;46.898;7.660;2023-04-06T11:00:17;15.90;1.00
42841;DHT22;28491;46.898;7.660;2023-04-06T11:02:42;15.20;1.00
42841;DHT22;28491;46.898;7.660;2023-04-06T11:05:08;15.50;1.00
42841;DHT22;28491;46.898;7.660;2023-04-06T11:07:33;15.90;1.00
42841;DHT22;28491;46.898;7.660;2023-04-06T11:09:59;15.80;1.00
42841;DHT22;28491;46.898;7.660;2023-04-06T11:12:25;15.60;1.00
42841;DHT22;28491;46.898;7.660;2023-04-06T11:17:25;15.30;1.00
42841;DHT22;28491;46.898;7.660;2023-04-06T11:19:50;15.30;1.00
42841;DHT22;28491;46.898;7.660;2023-04-06T11:22:16;15.20;1.00
42841;DHT22;28491;46.898;7.660;2023-04-06T11:24:41;15.30;1.00
42841;DHT22;28491;46.898;7.660;2023-04-06T11:27:07;15.60;1.00
42841;DHT22;28491;46.898;7.660;2023-04-06T11:29:32;15.40;1.00
42841;DHT22;28491;46.898;7.660;2023-04-06T11:32:03;15.60;1.00
42841;DHT22;28491;46.898;7.660;2023-04-06T11:34:29;16.00;1.00
42841;DHT22;28491;46.898;7.660;2023-04-06T11:36:56;15.70;1.00
42841;DHT22;28491;46.898;7.660;2023-04-06T11:39:23;15.70;1.00
42841;DHT22;28491;46.898;7.660;2023-04-06T11:41:58;15.70;1.00
42841;DHT22;28491;46.898;7.660;2023-04-06T11:44:36;15.30;1.00
42841;DHT22;28491;46.898;7.660;2023-04-06T11:47:04;15.30;1.00
42841;DHT22;28491;46.898;7.660;2023-04-06T11:49:30;15.50;1.00
42841;DHT22;28491;46.898;7.660;2023-04-06T11:51:56;15.50;1.00
42841;DHT22;28491;46.898;7.660;2023-04-06T11:56:56;15.60;1.00
42841;DHT22;28491;46.898;7.660;2023-04-06T11:59:22;15.60;1.00
42841;DHT22;28491;46.898;7.660;2023-04-06T12:01:48;15.50;1.00
42841;DHT22;28491;46.898;7.660;2023-04-06T12:04:13;15.30;1.00
42841;DHT22;28491;46.898;7.660;2023-04-06T12:06:39;15.20;1.00
42841;DHT22;28491;46.898;7.660;2023-04-06T12:09:04;15.20;1.00
42841;DHT22;28491;46.898;7.660;2023-04-06T12:11:29;15.30;1.00
42841;DHT22;28491;46.898;7.660;2023-04-06T12:13:55;15.50;1.00
42841;DHT22;28491;46.898;7.660;2023-04-06T12:16:21;15.60;1.00
42841;DHT22;28491;46.898;7.660;2023-04-06T12:18:46;15.40;1.00
42841;DHT22;28491;46.898;7.660;2023-04-06T12:21:12;15.40;1.00
42841;DHT22;28491;46.898;7.660;2023-04-06T12:23:37;15.50;1.00
42841;DHT22;28491;46.898;7.660;2023-04-06T12:26:03;15.40;1.00
42841;DHT22;28491;46.898;7.660;2023-04-06T12:28:28;15.60;1.00
42841;DHT22;28491;46.898;7.660;2023-04-06T12:30:54;15.70;1.00
42841;DHT22;28491;46.898;7.660;2023-04-06T12:33:20;15.40;1.00
42841;DHT22;28491;46.898;7.660;2023-04-06T12:35:46;15.40;1.00
42841;DHT22;28491;46.898;7.660;2023-04-06T12:38:11;15.40;1.00
42841;DHT22;28491;46.898;7.660;2023-04-06T12:40:39;15.30;1.00
42841;DHT22;28491;46.898;7.660;2023-04-06T12:43:05;15.30;1.00
42841;DHT22;28491;46.898;7.660;2023-04-06T12:45:31;15.40;1.00
42841;DHT22;28491;46.898;7.660;2023-04-06T12:47:56;15.30;1.00
42841;DHT22;28491;46.898;7.660;2023-04-06T12:50:22;15.10;1.00
42841;DHT22;28491;46.898;7.660;2023-04-06T12:52:47;15.00;1.00
42841;DHT22;28491;46.898;7.660;2023-04-06T12:55:13;14.90;1.00
42841;DHT22;28491;46.898;7.660;2023-04-06T12:57:38;14.70;1.00
42841;DHT22;28491;46.898;7.660;2023-04-06T13:00:04;14.80;1.00
42841;DHT22;28491;46.898;7.660;2023-04-06T13:02:30;14.90;1.00
42841;DHT22;28491;46.898;7.660;2023-04-06T13:04:56;15.10;1.00
42841;DHT22;28491;46.898;7.660;2023-04-06T13:07:21;15.30;1.00
42841;DHT22;28491;46.898;7.660;2023-04-06T13:09:47;15.60;1.00
42841;DHT22;28491;46.898;7.660;2023-04-06T13:12:15;15.80;1.00
42841;DHT22;28491;46.898;7.660;2023-04-06T13:14:40;15.80;1.00
42841;DHT22;28491;46.898;7.660;2023-04-06T13:17:06;15.80;1.00
42841;DHT22;28491;46.898;7.660;2023-04-06T13:19:32;15.30;1.00
42841;DHT22;28491;46.898;7.660;2023-04-06T13:21:57;14.60;1.00
42841;DHT22;28491;46.898;7.660;2023-04-06T13:24:23;14.80;1.00
42841;DHT22;28491;46.898;7.660;2023-04-06T13:26:48;14.70;1.00
42841;DHT22;28491;46.898;7.660;2023-04-06T13:29:14;14.80;1.00
42841;DHT22;28491;46.898;7.660;2023-04-06T13:31:40;15.10;1.00
42841;DHT22;28491;46.898;7.660;2023-04-06T13:34:05;15.00;1.00
42841;DHT22;28491;46.898;7.660;2023-04-06T13:36:31;15.10;1.00
42841;DHT22;28491;46.898;7.660;2023-04-06T13:38:57;15.00;1.00
42841;DHT22;28491;46.898;7.660;2023-04-06T13:41:23;15.10;1.00
42841;DHT22;28491;46.898;7.660;2023-04-06T13:43:49;15.10;1.00
42841;DHT22;28491;46.898;7.660;2023-04-06T13:46:15;15.00;1.00
42841;DHT22;28491;46.898;7.660;2023-04-06T13:48:40;15.00;1.00
42841;DHT22;28491;46.898;7.660;2023-04-06T13:51:12;14.70;1.00
42841;DHT22;28491;46.898;7.660;2023-04-06T13:53:38;13.70;1.00
42841;DHT22;28491;46.898;7.660;2023-04-06T13:56:04;13.80;1.00
42841;DHT22;28491;46.898;7.660;2023-04-06T13:58:30;14.30;1.00
42841;DHT22;28491;46.898;7.660;2023-04-06T14:01:01;14.40;1.00
42841;DHT22;28491;46.898;7.660;2023-04-06T14:03:27;14.50;1.00
42841;DHT22;28491;46.898;7.660;2023-04-06T14:05:52;14.50;1.00
42841;DHT22;28491;46.898;7.660;2023-04-06T14:08:18;14.40;1.00
42841;DHT22;28491;46.898;7.660;2023-04-06T14:10:43;14.40;1.00
42841;DHT22;28491;46.898;7.660;2023-04-06T14:13:09;14.40;1.00
42841;DHT22;28491;46.898;7.660;2023-04-06T14:15:34;14.30;1.00
42841;DHT22;28491;46.898;7.660;2023-04-06T14:18:00;14.40;1.00
42841;DHT22;28491;46.898;7.660;2023-04-06T14:20:26;14.30;1.00
42841;DHT22;28491;46.898;7.660;2023-04-06T14:22:52;14.30;1.00
42841;DHT22;28491;46.898;7.660;2023-04-06T14:25:19;14.50;1.00
42841;DHT22;28491;46.898;7.660;2023-04-06T14:27:45;14.50;1.00
42841;DHT22;28491;46.898;7.660;2023-04-06T14:30:10;14.30;1.00
42841;DHT22;28491;46.898;7.660;2023-04-06T14:32:36;14.20;1.00
42841;DHT22;28491;46.898;7.660;2023-04-06T14:35:04;14.10;1.00
42841;DHT22;28491;46.898;7.660;2023-04-06T14:37:29;14.00;1.00
42841;DHT22;28491;46.898;7.660;2023-04-06T14:39:55;13.90;1.00
42841;DHT22;28491;46.898;7.660;2023-04-06T14:42:21;13.80;1.00
42841;DHT22;28491;46.898;7.660;2023-04-06T14:44:46;13.80;1.00
42841;DHT22;28491;46.898;7.660;2023-04-06T14:47:13;13.70;1.00
42841;DHT22;28491;46.898;7.660;2023-04-06T14:49:40;13.60;1.00
42841;DHT22;28491;46.898;7.660;2023-04-06T14:52:06;13.50;1.00
42841;DHT22;28491;46.898;7.660;2023-04-06T14:54:31;13.40;1.00
42841;DHT22;28491;46.898;7.660;2023-04-06T14:56:57;13.30;1.00
42841;DHT22;28491;46.898;7.660;2023-04-06T14:59:22;13.40;1.00
42841;DHT22;28491;46.898;7.660;2023-04-06T15:01:48;13.40;1.00
42841;DHT22;28491;46.898;7.660;2023-04-06T15:04:13;13.20;1.00
42841;DHT22;28491;46.898;7.660;2023-04-06T15:06:39;13.30;1.00
42841;DHT22;28491;46.898;7.660;2023-04-06T15:09:05;13.10;1.00
42841;DHT22;28491;46.898;7.660;2023-04-06T15:11:30;13.10;1.00
42841;DHT22;28491;46.898;7.660;2023-04-06T15:13:56;13.00;1.00
42841;DHT22;28491;46.898;7.660;2023-04-06T15:16:21;13.10;1.00
42841;DHT22;28491;46.898;7.660;2023-04-06T15:18:46;13.10;1.00
42841;DHT22;28491;46.898;7.660;2023-04-06T15:21:12;13.10;1.00
42841;DHT22;28491;46.898;7.660;2023-04-06T15:23:38;13.10;1.00
42841;DHT22;28491;46.898;7.660;2023-04-06T15:26:03;13.20;1.00
42841;DHT22;28491;46.898;7.660;2023-04-06T15:28:29;13.20;1.00
42841;DHT22;28491;46.898;7.660;2023-04-06T15:30:54;13.30;1.00
42841;DHT22;28491;46.898;7.660;2023-04-06T15:33:20;13.30;1.00
42841;DHT22;28491;46.898;7.660;2023-04-06T15:35:47;13.40;1.00
42841;DHT22;28491;46.898;7.660;2023-04-06T15:38:12;13.60;1.00
42841;DHT22;28491;46.898;7.660;2023-04-06T15:40:41;13.60;1.00
42841;DHT22;28491;46.898;7.660;2023-04-06T15:43:07;13.50;1.00
42841;DHT22;28491;46.898;7.660;2023-04-06T15:45:32;13.10;1.00
42841;DHT22;28491;46.898;7.660;2023-04-06T15:47:58;12.90;1.00
42841;DHT22;28491;46.898;7.660;2023-04-06T15:50:23;13.20;1.00
42841;DHT22;28491;46.898;7.660;2023-04-06T15:52:49;13.00;1.00
42841;DHT22;28491;46.898;7.660;2023-04-06T15:55:14;13.10;1.00